Time;durP1;ratioP1;P1;durP2;ratioP2;P2;SDS_P1;SDS_P2;PMS_P1;PMS_P2;Temp;Humidity;BMP_temperature;BMP_pressure;BME280_temperature;BME280_humidity;BME280_pressure;Samples;Min_cycle;Max_cycle;Signal;HPM_P1;HPM_P2
2022/04/21 00:00:30;;;;;;;4.40;2.90;;;12.20;60.10;;;;;;5054964;28;20037;-59
2022/04/21 00:02:55;;;;;;;3.78;2.63;;;12.20;60.30;;;;;;5055138;28;20487;-59
2022/04/21 00:05:21;;;;;;;4.07;2.78;;;12.10;60.30;;;;;;5054884;28;20096;-59
2022/04/21 00:07:48;;;;;;;3.97;2.95;;;12.10;60.20;;;;;;5055309;28;20041;-59
2022/04/21 00:10:14;;;;;;;4.05;2.95;;;12.00;60.20;;;;;;5054761;28;20056;-59
2022/04/21 00:12:40;;;;;;;4.13;2.83;;;12.00;60.30;;;;;;5053313;28;20029;-59
2022/04/21 00:15:06;;;;;;;5.65;2.70;;;11.90;60.40;;;;;;5054642;28;20036;-59
2022/04/21 00:17:32;;;;;;;3.97;2.85;;;11.90;60.40;;;;;;5054768;28;20139;-59
2022/04/21 00:19:58;;;;;;;3.42;2.35;;;11.80;60.30;;;;;;5054708;28;20227;-59
2022/04/21 00:25:08;;;;;;;2.90;2.30;;;11.70;60.50;;;;;;5054909;28;20412;-59
2022/04/21 00:27:42;;;;;;;5.75;3.28;;;11.70;60.50;;;;;;5054441;28;20017;-59
2022/04/21 00:30:09;;;;;;;5.72;2.88;;;11.70;60.50;;;;;;5054584;28;20495;-59
2022/04/21 00:32:38;;;;;;;5.10;3.08;;;11.60;60.60;;;;;;5054413;28;20492;-59
2022/04/21 00:35:05;;;;;;;4.68;2.75;;;11.60;60.70;;;;;;5054291;28;20044;-59
2022/04/21 00:37:31;;;;;;;4.60;2.90;;;11.50;60.60;;;;;;5054490;28;20378;-59
2022/04/21 00:39:57;;;;;;;3.30;2.20;;;11.50;60.70;;;;;;5054256;28;20100;-59
2022/04/21 00:42:22;;;;;;;3.53;2.63;;;11.50;60.70;;;;;;5054164;28;20029;-59
2022/04/21 00:44:51;;;;;;;3.50;2.78;;;11.40;60.80;;;;;;5053026;28;20025;-59
2022/04/21 00:47:19;;;;;;;3.90;2.60;;;11.40;60.80;;;;;;5054283;28;20035;-59
2022/04/21 00:49:45;;;;;;;3.88;2.90;;;11.40;61.00;;;;;;5054108;28;20047;-59
2022/04/21 00:52:12;;;;;;;4.35;3.35;;;11.40;61.10;;;;;;5054191;28;20090;-59
2022/04/21 00:54:37;;;;;;;3.83;3.10;;;11.30;61.10;;;;;;5054053;28;20086;-60
2022/04/21 00:57:04;;;;;;;5.47;2.90;;;11.30;61.10;;;;;;5044587;28;20104;-59
2022/04/21 00:59:30;;;;;;;4.18;3.13;;;11.20;61.00;;;;;;5034547;28;20029;-59
2022/04/21 01:04:41;;;;;;;4.53;3.30;;;11.20;61.20;;;;;;5053966;28;20144;-59
2022/04/21 01:07:08;;;;;;;5.55;3.00;;;11.10;61.10;;;;;;5053809;28;20021;-59
2022/04/21 01:09:38;;;;;;;4.65;3.03;;;11.10;61.10;;;;;;5053815;28;20021;-61
2022/04/21 01:12:10;;;;;;;5.53;2.88;;;11.10;61.10;;;;;;5052535;28;20045;-59
2022/04/21 01:14:39;;;;;;;3.67;2.85;;;11.10;61.20;;;;;;5053439;28;20017;-59
2022/04/21 01:17:09;;;;;;;4.50;2.88;;;11.00;61.40;;;;;;5053612;28;20369;-59
2022/04/21 01:19:35;;;;;;;5.00;3.05;;;11.00;61.60;;;;;;5053522;28;20389;-59
2022/04/21 01:22:01;;;;;;;3.45;2.80;;;10.90;61.80;;;;;;5053386;28;20054;-59
2022/04/21 01:24:26;;;;;;;4.20;2.92;;;10.90;61.90;;;;;;5052227;28;20066;-59
2022/04/21 01:26:54;;;;;;;3.75;2.83;;;10.90;62.00;;;;;;5053218;28;20017;-59
2022/04/21 01:29:19;;;;;;;4.80;3.30;;;10.90;62.00;;;;;;5051904;28;20025;-59
2022/04/21 01:31:45;;;;;;;5.47;3.90;;;10.80;62.00;;;;;;5053535;28;20354;-59
2022/04/21 01:34:10;;;;;;;4.07;2.90;;;10.70;62.20;;;;;;5053219;28;20556;-59
2022/04/21 01:41:08;;;;;;;5.25;3.22;;;10.70;62.20;;;;;;5053212;28;20036;-59
2022/04/21 01:42:06;;;;;;;3.88;2.88;;;10.60;62.50;;;;;;5053410;28;20055;-59
2022/04/21 01:44:32;;;;;;;4.35;3.30;;;10.50;62.50;;;;;;5053016;28;20023;-60
2022/04/21 01:46:58;;;;;;;4.55;3.55;;;10.50;62.70;;;;;;5053110;28;20021;-59
2022/04/21 01:49:23;;;;;;;4.25;3.40;;;10.50;62.90;;;;;;5053006;28;20056;-59
2022/04/21 01:51:49;;;;;;;5.00;3.30;;;10.40;62.80;;;;;;5053087;28;20544;-59
2022/04/21 01:54:14;;;;;;;4.57;3.40;;;10.40;62.90;;;;;;5052640;28;20111;-60
2022/04/21 01:56:40;;;;;;;5.35;3.80;;;10.30;63.00;;;;;;5053045;28;20079;-59
2022/04/21 01:59:05;;;;;;;8.00;4.00;;;10.30;63.20;;;;;;5052734;28;20037;-59
2022/04/21 02:01:31;;;;;;;5.72;3.67;;;10.20;63.30;;;;;;5052721;28;20029;-59
2022/04/21 02:03:57;;;;;;;9.18;4.50;;;10.20;63.50;;;;;;5052665;28;20029;-59
2022/04/21 02:06:23;;;;;;;5.60;3.90;;;10.20;64.00;;;;;;5052737;28;20521;-59
2022/04/21 02:08:49;;;;;;;5.50;4.05;;;10.10;64.40;;;;;;5052643;28;20017;-59
2022/04/21 02:11:15;;;;;;;7.50;4.68;;;10.10;64.60;;;;;;5052699;28;20040;-59
2022/04/21 02:13:41;;;;;;;6.47;4.00;;;10.00;64.90;;;;;;5052597;28;20025;-59
2022/04/21 02:16:06;;;;;;;6.05;4.28;;;10.00;65.10;;;;;;5052398;28;20111;-59
2022/04/21 02:18:32;;;;;;;6.70;4.00;;;9.90;65.10;;;;;;5052626;28;20029;-59
2022/04/21 02:20:57;;;;;;;8.18;4.47;;;9.90;65.40;;;;;;5052364;28;20033;-59
2022/04/21 02:23:23;;;;;;;5.82;4.40;;;9.90;65.60;;;;;;5052075;28;20033;-59
2022/04/21 02:25:48;;;;;;;5.82;4.30;;;9.90;65.70;;;;;;5052485;28;20108;-59
2022/04/21 02:28:14;;;;;;;5.50;3.90;;;9.80;65.60;;;;;;5052058;28;20535;-59
2022/04/21 02:30:39;;;;;;;6.15;4.05;;;9.80;65.80;;;;;;5052266;28;20033;-59
2022/04/21 02:33:05;;;;;;;4.75;4.00;;;9.80;66.00;;;;;;5051996;28;20079;-59
2022/04/21 02:35:30;;;;;;;5.72;3.65;;;9.70;66.20;;;;;;5052197;28;20025;-59
2022/04/21 02:37:56;;;;;;;7.13;4.80;;;9.70;66.20;;;;;;5051611;28;20075;-59
2022/04/21 02:40:21;;;;;;;3.83;3.42;;;9.70;66.50;;;;;;5051703;28;20099;-59
2022/04/21 02:42:47;;;;;;;6.38;4.10;;;9.70;66.50;;;;;;5052177;28;20029;-59
2022/04/21 02:45:13;;;;;;;4.45;3.38;;;9.70;66.50;;;;;;5052067;28;20025;-59
2022/04/21 02:47:44;;;;;;;4.45;3.08;;;9.60;66.40;;;;;;5052065;28;20025;-59
2022/04/21 02:50:12;;;;;;;5.95;3.80;;;9.60;66.50;;;;;;5052015;28;20029;-59
2022/04/21 02:52:39;;;;;;;3.80;3.30;;;9.60;66.60;;;;;;5050953;28;20035;-58
2022/04/21 02:57:50;;;;;;;4.47;3.35;;;9.50;66.80;;;;;;5052406;28;20047;-59
2022/04/21 03:00:16;;;;;;;5.00;3.22;;;9.50;67.00;;;;;;5051782;28;20029;-59
2022/04/21 03:02:41;;;;;;;5.35;3.55;;;9.50;67.10;;;;;;5052004;28;20032;-59
2022/04/21 03:05:08;;;;;;;5.30;3.90;;;9.50;67.30;;;;;;5051620;28;20025;-59
2022/04/21 03:07:34;;;;;;;6.00;4.35;;;9.50;67.70;;;;;;5052117;28;20313;-59
2022/04/21 03:09:59;;;;;;;5.43;4.15;;;9.40;68.20;;;;;;5051938;28;20036;-58
2022/04/21 03:12:26;;;;;;;5.05;3.55;;;9.40;68.20;;;;;;5051892;28;20050;-59
2022/04/21 03:14:53;;;;;;;3.88;3.08;;;9.40;68.20;;;;;;5051910;28;20021;-59
2022/04/21 03:17:19;;;;;;;3.90;3.00;;;9.40;68.20;;;;;;5051713;28;20118;-59
2022/04/21 03:19:44;;;;;;;3.53;2.72;;;9.40;68.30;;;;;;5051768;28;20472;-59
2022/04/21 03:25:00;;;;;;;3.95;3.15;;;9.40;68.70;;;;;;5052057;28;20039;-59
2022/04/21 03:27:29;;;;;;;6.15;3.55;;;9.30;68.80;;;;;;5051831;28;20110;-59
2022/04/21 03:29:55;;;;;;;4.40;2.97;;;9.30;69.00;;;;;;5051800;28;20051;-60
2022/04/21 03:32:21;;;;;;;5.40;3.08;;;9.30;69.10;;;;;;5051501;28;20135;-58
2022/04/21 03:34:47;;;;;;;4.45;3.15;;;9.30;69.20;;;;;;5051606;28;20100;-59
2022/04/21 03:37:14;;;;;;;5.78;3.95;;;9.20;69.20;;;;;;5051670;28;20017;-59
2022/04/21 03:39:40;;;;;;;8.23;4.22;;;9.20;69.50;;;;;;5051916;28;20084;-59
2022/04/21 03:42:16;;;;;;;7.28;5.30;;;9.10;69.80;;;;;;5051567;28;20025;-59
2022/04/21 03:44:42;;;;;;;7.15;4.10;;;9.10;70.70;;;;;;5051528;28;20036;-59
2022/04/21 03:47:07;;;;;;;7.55;4.10;;;9.10;70.60;;;;;;5051355;28;20033;-59
2022/04/21 03:49:33;;;;;;;6.45;3.53;;;9.10;70.60;;;;;;5052205;28;20032;-59
2022/04/21 03:51:58;;;;;;;5.53;3.75;;;9.10;70.70;;;;;;5055223;28;20032;-59
2022/04/21 03:54:26;;;;;;;5.50;4.43;;;9.00;70.70;;;;;;5055156;28;20036;-59
2022/04/21 03:56:52;;;;;;;5.93;4.07;;;9.00;71.30;;;;;;5055307;28;20083;-59
2022/04/21 03:59:19;;;;;;;7.75;4.88;;;8.90;71.40;;;;;;5054907;28;20151;-59
2022/04/21 04:01:45;;;;;;;4.30;3.45;;;9.00;71.50;;;;;;5055030;28;20108;-59
2022/04/21 04:04:11;;;;;;;5.32;4.10;;;9.00;71.50;;;;;;5054889;28;20100;-59
2022/04/21 04:12:19;;;;;;;4.90;3.70;;;8.80;71.80;;;;;;5053497;28;20071;-59
2022/04/21 04:14:44;;;;;;;5.60;4.32;;;8.80;71.80;;;;;;5053599;28;20021;-59
2022/04/21 04:17:10;;;;;;;7.50;5.20;;;8.80;72.10;;;;;;5054824;28;20112;-59
2022/04/21 04:19:35;;;;;;;7.20;4.40;;;8.70;72.50;;;;;;5054926;28;20028;-59
2022/04/21 04:22:03;;;;;;;7.68;5.15;;;8.70;73.00;;;;;;5054432;28;20064;-59
2022/04/21 04:24:29;;;;;;;5.88;4.95;;;8.60;73.20;;;;;;5054655;28;20508;-59
2022/04/21 04:26:55;;;;;;;6.85;4.35;;;8.60;73.60;;;;;;5053199;28;20068;-63
2022/04/21 04:29:26;;;;;;;7.43;4.60;;;8.60;73.70;;;;;;5054325;28;20048;-59
2022/04/21 04:31:53;;;;;;;5.65;4.38;;;8.60;73.90;;;;;;5053882;28;20021;-59
2022/04/21 04:34:21;;;;;;;6.13;3.85;;;8.60;73.90;;;;;;5054188;28;20058;-58
2022/04/21 04:36:47;;;;;;;6.50;4.93;;;8.60;73.80;;;;;;5034506;28;20489;-59
2022/04/21 04:39:13;;;;;;;7.45;4.75;;;8.50;74.00;;;;;;5034375;28;20060;-59
2022/04/21 04:44:24;;;;;;;6.38;4.93;;;8.50;74.60;;;;;;5034607;28;20558;-59
2022/04/21 04:46:50;;;;;;;7.20;5.28;;;8.50;74.80;;;;;;5034384;28;20109;-59
2022/04/21 04:49:16;;;;;;;6.70;4.70;;;8.50;74.80;;;;;;5033960;28;20031;-59
2022/04/21 04:51:42;;;;;;;5.65;4.22;;;8.50;74.90;;;;;;5034373;28;20025;-59
2022/04/21 04:54:09;;;;;;;6.15;4.70;;;8.50;75.00;;;;;;5034130;28;20025;-59
2022/04/21 04:56:36;;;;;;;7.68;4.35;;;8.50;75.00;;;;;;5034176;28;20041;-59
2022/04/21 04:59:02;;;;;;;9.32;4.70;;;8.50;75.10;;;;;;5034151;28;20036;-58
2022/04/21 05:01:34;;;;;;;7.35;4.80;;;8.50;75.20;;;;;;5033085;28;20449;-59
2022/04/21 05:04:10;;;;;;;7.65;5.10;;;8.50;75.40;;;;;;5033737;28;20063;-58
2022/04/21 05:06:43;;;;;;;7.97;5.55;;;8.50;75.70;;;;;;5036454;28;20017;-59
2022/04/21 05:09:11;;;;;;;6.93;5.47;;;8.50;75.90;;;;;;5053690;28;20078;-58
2022/04/21 05:11:39;;;;;;;10.45;5.75;;;8.50;76.00;;;;;;5053815;28;20099;-59
2022/04/21 05:14:07;;;;;;;6.47;4.85;;;8.50;76.20;;;;;;5053714;28;20033;-59
2022/04/21 05:16:33;;;;;;;8.23;5.35;;;8.50;76.30;;;;;;5053741;28;20579;-59
2022/04/21 05:18:58;;;;;;;7.57;5.88;;;8.60;76.30;;;;;;5053514;28;20025;-59
2022/04/21 05:21:24;;;;;;;8.45;5.63;;;8.60;76.60;;;;;;5053810;28;20676;-59
2022/04/21 05:23:56;;;;;;;10.05;5.50;;;8.60;76.70;;;;;;5053388;28;20500;-59
2022/04/21 05:26:21;;;;;;;6.22;4.95;;;8.60;76.80;;;;;;5052292;28;20104;-59
2022/04/21 05:28:47;;;;;;;8.25;5.18;;;8.60;77.00;;;;;;5053259;28;20106;-59
2022/04/21 05:31:14;;;;;;;6.15;4.65;;;8.60;77.00;;;;;;5053094;28;20044;-59
2022/04/21 05:33:40;;;;;;;8.15;5.35;;;8.60;77.00;;;;;;5053146;28;20229;-59
2022/04/21 05:36:06;;;;;;;8.88;6.28;;;8.70;77.20;;;;;;5052860;28;20021;-59
2022/04/21 05:38:32;;;;;;;7.75;4.97;;;8.70;77.30;;;;;;5053434;28;20082;-59
2022/04/21 05:40:58;;;;;;;7.20;5.10;;;8.70;77.30;;;;;;5053134;28;20041;-59
2022/04/21 05:43:30;;;;;;;7.43;5.63;;;8.70;77.20;;;;;;5053051;28;20025;-59
2022/04/21 05:45:56;;;;;;;8.38;5.95;;;8.80;77.50;;;;;;5049477;28;20093;-59
2022/04/21 05:48:21;;;;;;;6.93;5.43;;;8.80;77.70;;;;;;5033202;28;20140;-59
2022/04/21 05:50:49;;;;;;;8.40;4.90;;;8.80;77.80;;;;;;5063204;28;20055;-59
2022/04/21 05:53:26;;;;;;;8.07;5.57;;;8.80;78.10;;;;;;5058139;28;20481;-59
2022/04/21 05:55:53;;;;;;;6.93;5.20;;;8.90;78.10;;;;;;5049069;28;20103;-59
2022/04/21 05:58:20;;;;;;;6.32;5.00;;;8.90;78.10;;;;;;5052661;28;20112;-59
2022/04/21 06:00:46;;;;;;;8.38;5.03;;;8.90;78.20;;;;;;5052778;28;20048;-59
2022/04/21 06:03:11;;;;;;;8.68;5.63;;;9.00;78.40;;;;;;5050224;28;20447;-59
2022/04/21 06:05:40;;;;;;;9.35;5.55;;;9.00;78.90;;;;;;5052073;28;20023;-59
2022/04/21 06:08:06;;;;;;;7.32;4.95;;;9.10;79.10;;;;;;5050677;28;20541;-59
2022/04/21 06:10:35;;;;;;;7.07;5.20;;;9.10;79.20;;;;;;5052511;28;20108;-59
2022/04/21 06:13:04;;;;;;;8.73;5.88;;;9.20;79.20;;;;;;5050851;28;20021;-59
2022/04/21 06:15:30;;;;;;;6.40;5.15;;;9.20;79.50;;;;;;5052462;28;20047;-59
2022/04/21 06:17:57;;;;;;;7.78;5.40;;;9.20;79.60;;;;;;5052409;28;20104;-59
2022/04/21 06:20:23;;;;;;;9.27;6.07;;;9.30;79.70;;;;;;5051585;28;20488;-59
2022/04/21 06:22:48;;;;;;;7.07;5.78;;;9.30;79.80;;;;;;5051785;28;20052;-59
2022/04/21 06:25:14;;;;;;;9.13;5.35;;;9.30;79.90;;;;;;5050494;28;20108;-59
2022/04/21 06:27:39;;;;;;;9.63;5.70;;;9.30;79.80;;;;;;5052418;28;20033;-59
2022/04/21 06:30:05;;;;;;;6.97;5.20;;;9.40;80.20;;;;;;5052225;28;20025;-59
2022/04/21 06:32:31;;;;;;;6.75;4.60;;;9.40;79.40;;;;;;5050295;28;20545;-59
2022/04/21 06:34:57;;;;;;;6.43;4.20;;;9.50;79.20;;;;;;5045912;28;20026;-59
2022/04/21 06:37:23;;;;;;;6.57;5.13;;;9.50;79.10;;;;;;5050387;28;20430;-59
2022/04/21 06:39:48;;;;;;;8.88;5.63;;;9.60;79.30;;;;;;5043638;28;20112;-59
2022/04/21 06:42:14;;;;;;;6.20;5.03;;;9.70;79.50;;;;;;5047491;28;20025;-59
2022/04/21 06:50:09;;;;;;;6.22;5.28;;;9.80;79.50;;;;;;5044428;28;20395;-59
2022/04/21 06:52:34;;;;;;;8.85;5.35;;;9.90;79.60;;;;;;5045693;28;20502;-59
2022/04/21 06:55:00;;;;;;;4.85;4.05;;;9.90;79.50;;;;;;5051838;28;20064;-59
2022/04/21 06:57:25;;;;;;;6.05;4.50;;;9.90;79.30;;;;;;5045707;28;20539;-59
2022/04/21 06:59:51;;;;;;;7.10;4.57;;;10.00;79.10;;;;;;5051926;28;20037;-59
2022/04/21 07:02:16;;;;;;;6.60;4.32;;;10.10;79.00;;;;;;5051786;28;20033;-59
2022/04/21 07:04:42;;;;;;;6.03;3.88;;;10.10;78.70;;;;;;5051836;28;20017;-59
2022/04/21 07:07:07;;;;;;;6.60;4.75;;;10.20;78.60;;;;;;5051491;28;20025;-59
2022/04/21 07:09:33;;;;;;;6.57;4.57;;;10.20;78.40;;;;;;5050750;28;20465;-59
2022/04/21 07:11:59;;;;;;;6.18;4.00;;;10.30;78.40;;;;;;5050309;28;20056;-59
2022/04/21 07:14:25;;;;;;;5.88;4.20;;;10.30;78.20;;;;;;5051786;28;20148;-59
2022/04/21 07:16:50;;;;;;;6.20;4.43;;;10.40;78.10;;;;;;5051807;28;20169;-59
2022/04/21 07:19:16;;;;;;;5.78;4.47;;;10.40;77.80;;;;;;5051588;28;20040;-59
2022/04/21 07:21:41;;;;;;;5.18;4.32;;;10.50;77.90;;;;;;5051656;28;20063;-59
2022/04/21 07:24:07;;;;;;;5.65;4.25;;;10.60;77.80;;;;;;5051424;28;20056;-59
2022/04/21 07:26:32;;;;;;;7.53;4.43;;;10.60;77.60;;;;;;5055415;28;20435;-59
2022/04/21 07:28:58;;;;;;;6.72;4.68;;;10.70;77.70;;;;;;5055547;28;20087;-59
2022/04/21 07:31:24;;;;;;;5.97;4.72;;;10.80;77.70;;;;;;5056063;28;20029;-59
2022/04/21 07:33:49;;;;;;;5.82;3.97;;;10.80;77.40;;;;;;5055489;28;20098;-59
2022/04/21 07:36:15;;;;;;;7.00;5.15;;;10.90;77.20;;;;;;5055447;28;20032;-59
2022/04/21 07:38:40;;;;;;;5.15;4.30;;;11.00;77.30;;;;;;5055615;28;20044;-59
2022/04/21 07:41:06;;;;;;;4.78;4.28;;;11.00;77.20;;;;;;5055393;28;20533;-59
2022/04/21 07:43:34;;;;;;;7.07;4.50;;;11.10;77.10;;;;;;5055363;28;20532;-60
2022/04/21 07:46:00;;;;;;;5.15;4.32;;;11.20;76.60;;;;;;5055200;28;20059;-59
2022/04/21 07:49:44;;;;;;;7.75;5.30;;;11.30;76.40;;;;;;5055178;28;20041;-59
2022/04/21 07:51:11;;;;;;;6.55;4.65;;;11.30;76.40;;;;;;5055011;28;20033;-59
2022/04/21 07:53:36;;;;;;;5.40;4.03;;;11.40;76.10;;;;;;5054955;28;20491;-59
2022/04/21 07:56:02;;;;;;;6.05;4.68;;;11.50;75.70;;;;;;5055137;28;20031;-59
2022/04/21 07:58:28;;;;;;;8.10;4.68;;;11.50;75.10;;;;;;5054828;28;20025;-59
2022/04/21 08:00:53;;;;;;;5.57;3.80;;;11.60;74.80;;;;;;5054517;28;20029;-59
2022/04/21 08:03:19;;;;;;;5.70;3.90;;;11.70;74.20;;;;;;5054587;28;20461;-59
2022/04/21 08:05:45;;;;;;;4.57;3.40;;;11.80;74.20;;;;;;5054450;28;20017;-59
2022/04/21 08:08:11;;;;;;;5.38;4.47;;;11.80;73.20;;;;;;5053049;28;20486;-60
2022/04/21 08:10:36;;;;;;;5.93;3.42;;;11.90;72.50;;;;;;5054438;28;20037;-59
2022/04/21 08:13:02;;;;;;;6.32;3.65;;;11.90;71.90;;;;;;5054644;28;20083;-59
2022/04/21 08:15:30;;;;;;;6.50;4.07;;;12.00;71.60;;;;;;5054671;28;20033;-59
2022/04/21 08:18:00;;;;;;;4.18;3.05;;;12.10;71.30;;;;;;5054418;28;20420;-59
2022/04/21 08:20:28;;;;;;;5.78;3.15;;;12.20;71.20;;;;;;5054091;28;20025;-59
2022/04/21 08:22:54;;;;;;;5.80;2.80;;;12.20;70.50;;;;;;5052974;28;20069;-60
2022/04/21 08:33:33;;;;;;;5.70;2.90;;;12.60;67.60;;;;;;5053460;28;20031;-60
2022/04/21 08:35:59;;;;;;;4.47;2.47;;;12.70;67.30;;;;;;5053711;28;20021;-59
2022/04/21 08:38:29;;;;;;;5.30;2.92;;;12.70;67.30;;;;;;5053805;28;20025;-59
2022/04/21 08:40:55;;;;;;;;;;;12.80;65.30;;;;;;5054243;28;20115;-59
2022/04/21 08:43:23;;;;;;;3.63;2.40;;;12.90;65.10;;;;;;5054196;28;19911;-59
2022/04/21 08:45:50;;;;;;;3.25;2.10;;;12.90;64.40;;;;;;5054193;28;20021;-59
2022/04/21 08:48:23;;;;;;;2.60;1.90;;;13.00;64.00;;;;;;5054014;28;20048;-59
2022/04/21 08:50:49;;;;;;;2.78;1.70;;;13.10;63.80;;;;;;5054214;28;20100;-59
2022/04/21 08:53:21;;;;;;;4.22;2.22;;;13.20;62.50;;;;;;5035847;28;20029;-59
2022/04/21 08:55:48;;;;;;;3.50;2.10;;;13.30;61.70;;;;;;5054077;28;20024;-59
2022/04/21 08:58:14;;;;;;;2.53;1.92;;;13.40;61.90;;;;;;5053144;28;20040;-59
2022/04/21 09:00:42;;;;;;;3.92;1.90;;;13.40;61.70;;;;;;5053194;28;20033;-59
2022/04/21 09:03:08;;;;;;;2.60;1.48;;;13.50;61.80;;;;;;5052027;28;20025;-59
2022/04/21 09:05:34;;;;;;;4.47;1.90;;;13.60;60.60;;;;;;5053399;28;20021;-59
2022/04/21 09:08:01;;;;;;;2.05;1.60;;;13.60;60.20;;;;;;5053855;28;20036;-59
2022/04/21 09:10:28;;;;;;;2.88;1.60;;;13.70;60.60;;;;;;5053654;28;20060;-59
2022/04/21 09:12:56;;;;;;;3.88;1.52;;;13.80;60.40;;;;;;5053342;28;20048;-59
2022/04/21 09:15:32;;;;;;;2.25;1.38;;;13.90;59.80;;;;;;5053569;28;20021;-59
2022/04/21 09:17:58;;;;;;;2.33;1.30;;;14.00;59.60;;;;;;5053340;28;20024;-59
2022/04/21 09:20:29;;;;;;;2.97;1.30;;;14.00;58.80;;;;;;5052177;28;20033;-59
2022/04/21 09:22:57;;;;;;;2.78;1.70;;;14.10;57.80;;;;;;5053290;28;20397;-59
2022/04/21 09:25:32;;;;;;;2.20;1.20;;;14.10;57.30;;;;;;5053061;28;20013;-59
2022/04/21 09:27:58;;;;;;;2.60;1.50;;;14.20;57.20;;;;;;5051872;28;20024;-59
2022/04/21 09:30:25;;;;;;;2.80;1.58;;;14.20;57.30;;;;;;5044098;28;20389;-59
2022/04/21 09:32:56;;;;;;;2.80;1.10;;;14.30;56.70;;;;;;5048715;28;20492;-59
2022/04/21 09:35:24;;;;;;;6.35;1.25;;;14.30;56.40;;;;;;5050331;28;20017;-59
2022/04/21 09:37:51;;;;;;;3.15;1.50;;;14.40;56.00;;;;;;5050181;28;20553;-59
2022/04/21 09:40:19;;;;;;;2.28;1.35;;;14.50;56.10;;;;;;5042527;28;20163;-59
2022/04/21 09:42:59;;;;;;;2.78;1.45;;;14.50;56.10;;;;;;5037296;28;20075;-62
2022/04/21 09:48:30;;;;;;;2.20;1.50;;;14.70;56.30;;;;;;5039439;28;20111;-60
2022/04/21 09:51:23;;;;;;;3.63;1.77;;;14.70;56.50;;;;;;5045506;28;20024;-59
2022/04/21 09:53:57;;;;;;;2.15;1.70;;;14.80;56.70;;;;;;5048509;28;20112;-59
2022/04/21 09:56:36;;;;;;;3.08;1.77;;;14.90;56.10;;;;;;5052577;28;20074;-60
2022/04/21 09:59:04;;;;;;;2.22;1.50;;;15.00;55.80;;;;;;5053038;28;20025;-59
2022/04/21 10:01:30;;;;;;;2.80;1.55;;;15.10;56.00;;;;;;5035037;28;20028;-59
2022/04/21 10:03:56;;;;;;;2.28;1.73;;;15.10;55.10;;;;;;5048363;28;20032;-59
2022/04/21 10:06:22;;;;;;;1.92;1.27;;;15.20;55.00;;;;;;5051877;28;20021;-59
2022/04/21 10:08:51;;;;;;;3.75;1.45;;;15.30;55.20;;;;;;5052241;28;20067;-59
2022/04/21 10:11:23;;;;;;;2.08;1.30;;;15.40;54.50;;;;;;5051771;28;20025;-59
2022/04/21 10:13:52;;;;;;;4.70;1.42;;;15.50;53.60;;;;;;5049183;28;20032;-60
2022/04/21 10:16:17;;;;;;;2.55;1.10;;;15.70;53.00;;;;;;5034686;28;20131;-59
2022/04/21 10:18:47;;;;;;;1.40;1.00;;;15.80;51.80;;;;;;5039928;28;20052;-59
2022/04/21 10:21:16;;;;;;;;;;;15.90;51.80;;;;;;5050813;28;20036;-59
2022/04/21 10:23:43;;;;;;;3.67;1.15;;;15.90;51.80;;;;;;5051010;28;19920;-59
2022/04/21 10:26:09;;;;;;;2.08;1.15;;;16.00;51.90;;;;;;5052087;28;20028;-60
2022/04/21 10:28:42;;;;;;;2.30;1.33;;;16.10;51.40;;;;;;5052420;28;20029;-59
2022/04/21 10:31:31;;;;;;;2.08;1.20;;;16.30;50.80;;;;;;5052215;28;20032;-59
2022/04/21 10:34:07;;;;;;;3.47;1.67;;;16.40;50.30;;;;;;5052309;28;20029;-60
2022/04/21 10:36:38;;;;;;;1.77;1.00;;;16.50;49.70;;;;;;5049077;28;20024;-59
2022/04/21 10:39:23;;;;;;;2.00;1.05;;;16.60;49.20;;;;;;5046071;28;20025;-59
2022/04/21 10:42:06;;;;;;;1.70;1.00;;;16.80;49.20;;;;;;5047765;28;20021;-59
2022/04/21 10:45:00;;;;;;;2.25;1.05;;;16.90;49.50;;;;;;5040385;28;20017;-59
2022/04/21 10:47:29;;;;;;;1.80;1.25;;;17.10;49.50;;;;;;5048870;28;20033;-60
2022/04/21 10:50:00;;;;;;;1.73;1.00;;;17.20;49.20;;;;;;5042721;28;20112;-59
2022/04/21 10:57:47;;;;;;;3.50;1.70;;;17.70;48.60;;;;;;5043586;28;20091;-59
2022/04/21 11:00:27;;;;;;;2.53;1.23;;;17.80;47.50;;;;;;5046194;28;20036;-59
2022/04/21 11:03:02;;;;;;;3.42;1.65;;;17.90;48.00;;;;;;5044652;28;20053;-59
2022/04/21 11:05:36;;;;;;;2.55;1.02;;;18.20;48.30;;;;;;5049959;28;20507;-60
2022/04/21 11:08:04;;;;;;;1.33;0.80;;;19.00;47.70;;;;;;5050796;28;20055;-59
2022/04/21 11:10:39;;;;;;;3.75;1.45;;;20.80;45.90;;;;;;5050740;28;20033;-60
2022/04/21 11:13:05;;;;;;;3.90;1.30;;;21.70;43.20;;;;;;5051571;28;20025;-59
2022/04/21 11:15:39;;;;;;;2.25;0.95;;;22.10;41.40;;;;;;5046187;28;20481;-59
2022/04/21 11:18:09;;;;;;;1.88;1.05;;;22.10;41.00;;;;;;5047883;28;20036;-59
2022/04/21 11:20:40;;;;;;;1.70;0.90;;;22.10;40.90;;;;;;5051819;28;20484;-60
2022/04/21 11:23:10;;;;;;;1.60;0.90;;;22.00;40.50;;;;;;5051073;28;20043;-60
2022/04/21 11:25:36;;;;;;;1.73;1.20;;;22.10;40.70;;;;;;5051729;28;20104;-59
2022/04/21 11:28:02;;;;;;;1.95;1.00;;;22.20;40.00;;;;;;5051688;28;20053;-60
2022/04/21 11:30:32;;;;;;;1.88;0.77;;;22.10;40.00;;;;;;5051494;28;20104;-60
2022/04/21 11:32:59;;;;;;;2.40;0.85;;;22.40;40.20;;;;;;5051527;28;20024;-59
2022/04/21 11:35:25;;;;;;;3.97;1.10;;;22.60;40.30;;;;;;5051843;28;20037;-59
2022/04/21 11:37:55;;;;;;;3.72;1.30;;;22.70;40.20;;;;;;5051620;28;20036;-60
2022/04/21 11:40:25;;;;;;;10.23;2.20;;;22.70;40.50;;;;;;5051292;28;20493;-60
2022/04/21 11:42:53;;;;;;;39.20;3.85;;;23.00;39.60;;;;;;5051106;28;20033;-59
2022/04/21 11:45:20;;;;;;;34.97;4.15;;;23.10;39.50;;;;;;5051177;28;20036;-60
2022/04/21 11:47:46;;;;;;;9.88;1.98;;;23.40;39.10;;;;;;5051413;28;20025;-60
2022/04/21 11:50:13;;;;;;;1.90;0.95;;;23.60;38.20;;;;;;5051046;28;20469;-60
2022/04/21 11:52:42;;;;;;;2.38;0.82;;;23.60;36.90;;;;;;5050796;28;20487;-60
2022/04/21 11:55:09;;;;;;;4.30;1.13;;;23.50;37.30;;;;;;5050988;28;20021;-60
2022/04/21 11:57:48;;;;;;;1.17;0.80;;;23.50;36.80;;;;;;5049877;28;20400;-60
2022/04/21 12:00:16;;;;;;;3.08;1.33;;;23.60;37.00;;;;;;5051125;28;20029;-60
2022/04/21 12:08:26;;;;;;;2.65;0.90;;;24.10;36.60;;;;;;5051392;28;20280;-60
2022/04/21 12:10:52;;;;;;;4.50;1.60;;;24.10;36.90;;;;;;5051542;28;20476;-60
2022/04/21 12:13:18;;;;;;;2.33;1.42;;;24.20;36.80;;;;;;5054295;28;20044;-60
2022/04/21 12:15:43;;;;;;;1.77;1.20;;;24.20;37.00;;;;;;5053735;28;20085;-60
2022/04/21 12:18:09;;;;;;;2.35;1.20;;;24.40;36.90;;;;;;5054683;28;20064;-60
2022/04/21 12:20:50;;;;;;;2.65;1.67;;;24.60;36.70;;;;;;5053716;28;20029;-60
2022/04/21 12:23:22;;;;;;;1.83;1.50;;;24.80;36.10;;;;;;5054283;28;20428;-60
2022/04/21 12:25:48;;;;;;;3.58;1.38;;;24.80;36.40;;;;;;5053433;28;20064;-61
2022/04/21 12:28:14;;;;;;;2.13;1.00;;;24.80;36.40;;;;;;5054145;28;20052;-59
2022/04/21 12:30:39;;;;;;;2.63;1.40;;;25.00;36.10;;;;;;5054379;28;20044;-60
2022/04/21 12:33:05;;;;;;;7.13;1.05;;;25.30;36.30;;;;;;5053742;28;20528;-60
2022/04/21 12:35:49;;;;;;;3.85;1.23;;;25.50;36.10;;;;;;5049017;28;20378;-60
2022/04/21 12:41:00;;;;;;;6.25;1.80;;;25.80;35.90;;;;;;5045143;28;20051;-60
2022/04/21 12:43:30;;;;;;;1.63;0.98;;;25.90;35.30;;;;;;5051882;28;20024;-60
2022/04/21 12:45:59;;;;;;;1.90;1.63;;;25.90;34.70;;;;;;5051577;28;20021;-61
2022/04/21 12:48:26;;;;;;;3.77;1.33;;;25.90;33.30;;;;;;5051853;28;20028;-60
2022/04/21 12:50:56;;;;;;;1.98;1.10;;;25.90;33.70;;;;;;5054138;28;20270;-60
2022/04/21 12:53:32;;;;;;;1.73;1.30;;;26.10;33.80;;;;;;5054275;28;20021;-60
2022/04/21 12:56:11;;;;;;;2.30;1.75;;;26.10;34.00;;;;;;5054063;28;20040;-60
2022/04/21 12:58:37;;;;;;;1.85;1.52;;;26.20;34.80;;;;;;5054105;28;20025;-61
2022/04/21 13:01:07;;;;;;;8.07;1.90;;;26.30;34.60;;;;;;5053600;28;20029;-60
2022/04/21 13:03:32;;;;;;;;;;;26.20;34.30;;;;;;5053809;28;20468;-60
2022/04/21 13:05:59;;;;;;;2.15;1.35;;;26.30;34.60;;;;;;5047795;28;19916;-60
2022/04/21 13:08:26;;;;;;;2.90;1.60;;;26.40;34.80;;;;;;5050441;28;20017;-60
2022/04/21 13:10:54;;;;;;;5.57;1.67;;;26.50;34.90;;;;;;5049658;28;20029;-60
2022/04/21 13:13:20;;;;;;;1.85;1.30;;;26.50;34.40;;;;;;5046138;28;20120;-60
2022/04/21 13:15:46;;;;;;;6.88;1.70;;;26.60;34.80;;;;;;5046392;28;20538;-60
2022/04/21 13:18:12;;;;;;;2.47;1.70;;;26.80;35.10;;;;;;5049547;28;20082;-61
2022/04/21 13:23:24;;;;;;;2.05;1.30;;;26.60;35.70;;;;;;5052587;28;20138;-60
2022/04/21 13:25:49;;;;;;;2.70;1.63;;;26.50;36.00;;;;;;5053444;28;20388;-61
2022/04/21 13:28:15;;;;;;;3.63;1.88;;;26.40;36.00;;;;;;5051754;28;20469;-60
2022/04/21 13:30:40;;;;;;;3.00;1.50;;;26.30;36.30;;;;;;5052795;28;20033;-60
2022/04/21 13:33:21;;;;;;;4.47;2.05;;;26.30;36.80;;;;;;5051043;28;20028;-60
2022/04/21 13:35:47;;;;;;;2.70;1.63;;;26.30;36.70;;;;;;5052537;28;20031;-60
2022/04/21 13:38:12;;;;;;;2.97;1.90;;;26.30;36.10;;;;;;5050114;28;20104;-60
2022/04/21 13:40:38;;;;;;;2.55;1.60;;;26.20;36.50;;;;;;5049523;28;20040;-62
2022/04/21 13:43:03;;;;;;;2.72;1.45;;;26.30;36.40;;;;;;5048532;28;20105;-60
2022/04/21 13:45:29;;;;;;;3.08;1.35;;;26.40;36.40;;;;;;5052215;28;20427;-60
2022/04/21 13:47:56;;;;;;;2.33;1.10;;;26.40;36.50;;;;;;5053423;28;20025;-60